Time;durP1;ratioP1;P1;durP2;ratioP2;P2;SDS_P1;SDS_P2;PMS_P1;PMS_P2;Temp;Humidity;BMP_temperature;BMP_pressure;BME280_temperature;BME280_humidity;BME280_pressure;Samples;Min_cycle;Max_cycle;Signal;HPM_P1;HPM_P2
2021/09/22 00:01:58;;;;;;;9.70;8.50;;;13.50;99.90;;;;;;5128984;28;20155;-68
2021/09/22 00:04:24;;;;;;;11.30;9.40;;;13.60;99.90;;;;;;5129304;28;20175;-68
2021/09/22 00:06:49;;;;;;;9.82;8.75;;;13.50;99.90;;;;;;5129701;28;20155;-68
2021/09/22 00:09:15;;;;;;;9.43;8.52;;;13.40;99.90;;;;;;5129199;28;20524;-68
2021/09/22 00:11:41;;;;;;;10.20;9.13;;;13.30;99.90;;;;;;5129550;28;20214;-68
2021/09/22 00:14:07;;;;;;;8.85;7.85;;;13.20;99.90;;;;;;5129499;28;20246;-68
2021/09/22 00:16:32;;;;;;;11.45;9.00;;;13.20;99.90;;;;;;5129585;28;20190;-68
2021/09/22 00:18:59;;;;;;;10.95;9.65;;;13.20;99.90;;;;;;5128955;28;20175;-68
2021/09/22 00:21:24;;;;;;;10.50;8.95;;;13.40;99.90;;;;;;5111170;28;20262;-68
2021/09/22 00:23:50;;;;;;;12.15;9.13;;;13.50;99.90;;;;;;5129365;28;20159;-68
2021/09/22 00:26:16;;;;;;;14.38;9.35;;;13.50;99.90;;;;;;5129414;28;20155;-68
2021/09/22 00:28:41;;;;;;;15.65;9.60;;;13.30;99.90;;;;;;5129245;28;20162;-68
2021/09/22 00:31:07;;;;;;;9.98;9.05;;;13.40;99.90;;;;;;5129126;28;20534;-68
2021/09/22 00:33:33;;;;;;;11.18;9.20;;;13.40;99.90;;;;;;5129085;28;20163;-68
2021/09/22 00:35:59;;;;;;;12.27;9.25;;;13.50;99.90;;;;;;5128750;28;20524;-68
2021/09/22 00:38:25;;;;;;;9.15;8.30;;;13.50;99.90;;;;;;5128843;28;20170;-68
2021/09/22 00:40:51;;;;;;;10.48;9.40;;;13.30;99.90;;;;;;5128956;28;20608;-68
2021/09/22 00:43:17;;;;;;;9.88;8.88;;;13.30;99.90;;;;;;5129027;28;20190;-68
2021/09/22 00:45:43;;;;;;;11.95;8.90;;;13.20;99.90;;;;;;5129063;28;20227;-68
2021/09/22 00:48:09;;;;;;;12.02;9.68;;;13.20;99.90;;;;;;5128930;28;20620;-68
2021/09/22 00:50:35;;;;;;;11.52;8.90;;;13.20;99.90;;;;;;5128218;28;20170;-68
2021/09/22 00:53:02;;;;;;;9.93;9.00;;;13.30;99.90;;;;;;5128954;28;20163;-68
2021/09/22 00:55:28;;;;;;;10.15;9.13;;;13.30;99.90;;;;;;5128644;28;20173;-68
2021/09/22 00:57:55;;;;;;;12.30;8.57;;;13.20;99.90;;;;;;5128855;28;20534;-67
2021/09/22 01:00:24;;;;;;;11.55;8.90;;;13.20;99.90;;;;;;5128132;28;20250;-68
2021/09/22 01:02:50;;;;;;;12.37;9.40;;;13.00;99.90;;;;;;5128765;28;20151;-68
2021/09/22 01:05:21;;;;;;;14.48;10.50;;;12.90;99.90;;;;;;5128305;28;20174;-68
2021/09/22 01:07:47;;;;;;;16.00;10.35;;;13.10;99.90;;;;;;5128529;28;20170;-68
2021/09/22 01:10:14;;;;;;;12.37;10.63;;;13.00;99.90;;;;;;5128168;28;20217;-68
2021/09/22 01:12:40;;;;;;;11.30;9.80;;;13.10;99.90;;;;;;5127785;28;20714;-69
2021/09/22 01:15:07;;;;;;;13.20;10.45;;;13.20;99.90;;;;;;5144215;27;20166;-68
2021/09/22 01:17:33;;;;;;;18.27;10.73;;;13.00;99.90;;;;;;5109979;28;20162;-68
2021/09/22 01:20:01;;;;;;;10.67;9.50;;;13.00;99.90;;;;;;5127773;28;20188;-68
2021/09/22 01:22:28;;;;;;;10.52;8.98;;;13.10;99.90;;;;;;5144190;27;20192;-68
2021/09/22 01:24:54;;;;;;;14.77;9.30;;;13.10;99.90;;;;;;5128175;28;20159;-68
2021/09/22 01:27:19;;;;;;;9.93;8.83;;;13.00;99.90;;;;;;5128383;28;20258;-68
2021/09/22 01:29:45;;;;;;;15.10;9.47;;;12.90;99.90;;;;;;5127913;28;20170;-68
2021/09/22 01:32:12;;;;;;;10.70;9.70;;;13.10;99.90;;;;;;5128031;28;20178;-68
2021/09/22 01:34:38;;;;;;;12.50;9.85;;;12.90;99.90;;;;;;5127582;28;20178;-68
2021/09/22 01:37:04;;;;;;;15.27;9.13;;;12.70;99.90;;;;;;5127957;28;20188;-68
2021/09/22 01:39:47;;;;;;;10.23;9.02;;;12.60;99.90;;;;;;5127612;28;20265;-68
2021/09/22 01:42:13;;;;;;;10.50;9.25;;;12.60;99.90;;;;;;5127926;28;20143;-69
2021/09/22 01:44:38;;;;;;;11.57;9.82;;;12.60;99.90;;;;;;5127821;28;20704;-68
2021/09/22 01:47:04;;;;;;;11.40;10.23;;;12.50;99.90;;;;;;5127503;28;20204;-68
2021/09/22 01:49:30;;;;;;;12.38;10.32;;;12.40;99.90;;;;;;5127324;28;20234;-68
2021/09/22 01:51:58;;;;;;;15.30;9.90;;;12.40;99.90;;;;;;5127872;28;20193;-68
2021/09/22 01:54:24;;;;;;;11.13;8.95;;;12.30;99.90;;;;;;5127507;28;20170;-68
2021/09/22 01:56:50;;;;;;;14.20;10.30;;;12.30;99.90;;;;;;5127964;28;20159;-68
2021/09/22 01:59:16;;;;;;;11.10;9.97;;;12.50;99.90;;;;;;5127414;28;20228;-68
2021/09/22 02:01:41;;;;;;;15.85;11.52;;;13.00;99.90;;;;;;5143385;27;20194;-68
2021/09/22 02:04:07;;;;;;;12.43;10.47;;;12.90;99.90;;;;;;5108855;28;20178;-68
2021/09/22 02:06:33;;;;;;;14.37;11.87;;;12.60;99.90;;;;;;5127537;28;20210;-68
2021/09/22 02:08:58;;;;;;;12.40;11.07;;;12.50;99.90;;;;;;5127237;28;20163;-68
2021/09/22 02:11:24;;;;;;;12.75;11.50;;;12.40;99.90;;;;;;5088075;28;20576;-68
2021/09/22 02:13:50;;;;;;;14.05;11.45;;;12.50;99.90;;;;;;5086570;28;20183;-68
2021/09/22 02:16:15;;;;;;;12.80;11.00;;;12.50;99.90;;;;;;5085430;28;20176;-68
2021/09/22 02:18:41;;;;;;;12.53;11.23;;;12.40;99.90;;;;;;5086124;28;20159;-68
2021/09/22 02:21:10;;;;;;;13.27;11.90;;;12.30;99.90;;;;;;5086220;28;20191;-68
2021/09/22 02:23:38;;;;;;;15.70;10.80;;;12.30;99.90;;;;;;5086587;28;20160;-68
2021/09/22 02:26:04;;;;;;;17.75;11.20;;;12.30;99.90;;;;;;5086474;28;20156;-68
2021/09/22 02:28:30;;;;;;;15.07;10.63;;;12.20;99.90;;;;;;5086189;28;20164;-68
2021/09/22 02:30:55;;;;;;;13.10;10.87;;;12.20;99.90;;;;;;5086254;28;20170;-68
2021/09/22 02:33:21;;;;;;;14.33;10.30;;;12.10;99.90;;;;;;5086272;28;20192;-68
2021/09/22 02:35:47;;;;;;;18.20;11.20;;;12.20;99.90;;;;;;5085853;28;20180;-68
2021/09/22 02:38:12;;;;;;;12.80;10.10;;;12.40;99.90;;;;;;5086419;28;20179;-68
2021/09/22 02:40:38;;;;;;;11.93;10.70;;;12.30;99.90;;;;;;5086008;28;20191;-68
2021/09/22 02:43:04;;;;;;;14.70;10.73;;;12.40;99.90;;;;;;5086272;28;20164;-68
2021/09/22 02:45:29;;;;;;;15.33;11.83;;;12.40;99.90;;;;;;5086239;28;20171;-69
2021/09/22 02:47:55;;;;;;;13.47;11.70;;;12.40;99.90;;;;;;5086330;28;20168;-68
2021/09/22 02:50:21;;;;;;;15.93;11.73;;;12.30;99.90;;;;;;5085644;28;20201;-68
2021/09/22 02:52:47;;;;;;;17.97;10.70;;;12.30;99.90;;;;;;5086447;28;20179;-68
2021/09/22 02:55:12;;;;;;;12.97;10.90;;;12.20;99.90;;;;;;5086194;28;20172;-68
2021/09/22 02:57:38;;;;;;;15.80;10.50;;;12.60;99.90;;;;;;5084947;28;20225;-68
2021/09/22 03:00:09;;;;;;;14.47;10.83;;;12.50;99.90;;;;;;5085888;28;20274;-68
2021/09/22 03:02:35;;;;;;;15.73;10.87;;;12.30;99.90;;;;;;5086256;28;20144;-68
2021/09/22 03:05:00;;;;;;;11.40;10.33;;;12.20;99.90;;;;;;5085747;28;20172;-68
2021/09/22 03:07:26;;;;;;;13.77;10.97;;;12.10;99.90;;;;;;5086104;28;20164;-68
2021/09/22 03:09:52;;;;;;;11.17;10.10;;;12.10;99.90;;;;;;5084405;28;20219;-68
2021/09/22 03:12:17;;;;;;;12.27;10.33;;;12.00;99.90;;;;;;5086159;28;20179;-68
2021/09/22 03:14:43;;;;;;;11.03;10.00;;;12.00;99.90;;;;;;5085903;28;20195;-68
2021/09/22 03:17:08;;;;;;;11.70;10.10;;;12.20;99.90;;;;;;5085733;28;20191;-68
2021/09/22 03:19:34;;;;;;;11.40;10.23;;;12.30;99.90;;;;;;5085175;28;21003;-68
2021/09/22 03:22:00;;;;;;;11.90;10.37;;;12.10;99.90;;;;;;5085752;28;20152;-69
2021/09/22 03:24:26;;;;;;;10.53;9.43;;;12.10;99.90;;;;;;5085864;28;20160;-68
2021/09/22 03:26:51;;;;;;;11.97;9.73;;;12.20;99.90;;;;;;5118524;28;20160;-68
2021/09/22 03:29:17;;;;;;;11.90;9.73;;;12.10;99.90;;;;;;5117868;28;20233;-68
2021/09/22 03:31:44;;;;;;;11.73;10.57;;;11.90;99.90;;;;;;5085598;28;20179;-68
2021/09/22 03:34:10;;;;;;;10.30;9.27;;;11.90;99.90;;;;;;5085229;28;20164;-68
2021/09/22 03:36:36;;;;;;;17.23;10.77;;;11.80;99.90;;;;;;5087905;28;20176;-68
2021/09/22 03:39:02;;;;;;;11.73;10.43;;;11.80;99.90;;;;;;5089526;28;20254;-68
2021/09/22 03:41:28;;;;;;;10.97;9.83;;;11.80;99.90;;;;;;5087910;28;20359;-68
2021/09/22 03:43:53;;;;;;;11.10;10.00;;;11.80;99.90;;;;;;5089142;28;20168;-68
2021/09/22 03:46:19;;;;;;;11.60;10.40;;;11.90;99.90;;;;;;5089311;28;20164;-68
2021/09/22 03:48:45;;;;;;;10.80;9.70;;;11.90;99.90;;;;;;5088915;28;20175;-68
2021/09/22 03:51:11;;;;;;;11.27;10.10;;;11.80;99.90;;;;;;5089062;28;20293;-68
2021/09/22 03:53:36;;;;;;;16.87;10.33;;;11.90;99.90;;;;;;5089246;28;20164;-68
2021/09/22 03:56:03;;;;;;;10.03;9.10;;;11.80;99.90;;;;;;5089081;28;20628;-68
2021/09/22 03:58:29;;;;;;;10.93;9.83;;;11.70;99.90;;;;;;5121764;28;20174;-68
2021/09/22 04:00:54;;;;;;;16.15;10.90;;;11.60;99.90;;;;;;5121273;28;20259;-68
2021/09/22 04:03:20;;;;;;;13.20;10.90;;;11.60;99.90;;;;;;5088798;28;20525;-68
2021/09/22 04:05:46;;;;;;;14.53;11.30;;;11.70;99.90;;;;;;5088410;28;20551;-68
2021/09/22 04:08:11;;;;;;;15.47;11.17;;;11.60;99.90;;;;;;5088986;28;20621;-68
2021/09/22 04:10:37;;;;;;;14.53;11.10;;;11.60;99.90;;;;;;5110406;28;20214;-68
2021/09/22 04:13:03;;;;;;;14.07;12.30;;;11.50;99.90;;;;;;5129708;28;20166;-68
2021/09/22 04:15:28;;;;;;;16.63;12.93;;;11.50;99.90;;;;;;5129408;28;20218;-68
2021/09/22 04:17:54;;;;;;;17.83;13.03;;;11.60;99.90;;;;;;5129524;28;20158;-68
2021/09/22 04:20:20;;;;;;;19.40;13.47;;;11.50;99.90;;;;;;5128517;28;20190;-68
2021/09/22 04:22:45;;;;;;;15.60;12.50;;;11.50;99.90;;;;;;5111011;28;20163;-68
2021/09/22 04:25:11;;;;;;;15.83;13.33;;;11.60;99.90;;;;;;5110803;28;20257;-68
2021/09/22 04:27:38;;;;;;;21.33;13.67;;;11.60;99.90;;;;;;5129331;28;20162;-69
2021/09/22 04:30:06;;;;;;;14.43;12.93;;;11.60;99.90;;;;;;5128945;28;20724;-68
2021/09/22 04:32:32;;;;;;;16.60;13.10;;;11.60;99.90;;;;;;5129048;28;20178;-69
2021/09/22 04:34:58;;;;;;;18.90;12.40;;;11.60;99.90;;;;;;5128456;28;20174;-68
2021/09/22 04:37:24;;;;;;;13.67;11.63;;;11.50;99.90;;;;;;5128937;28;20602;-68
2021/09/22 04:39:51;;;;;;;14.77;11.67;;;11.40;99.90;;;;;;5128549;28;20249;-68
2021/09/22 04:42:17;;;;;;;14.83;13.07;;;11.40;99.90;;;;;;5110600;28;20159;-68
2021/09/22 04:44:42;;;;;;;13.57;12.17;;;11.50;99.90;;;;;;5128959;28;20189;-68
2021/09/22 04:47:10;;;;;;;17.57;13.30;;;11.50;99.90;;;;;;5127686;28;20218;-69
2021/09/22 04:49:36;;;;;;;15.23;12.20;;;11.60;99.90;;;;;;5128614;28;20165;-68
2021/09/22 04:52:03;;;;;;;16.37;12.80;;;11.60;99.90;;;;;;5110362;28;20154;-68
2021/09/22 04:54:28;;;;;;;15.83;12.73;;;11.50;99.90;;;;;;5128362;28;20166;-68
2021/09/22 04:56:54;;;;;;;16.03;12.47;;;11.50;99.90;;;;;;5128734;28;20169;-68
2021/09/22 04:59:20;;;;;;;19.23;12.43;;;11.50;99.90;;;;;;5128241;28;20181;-68
2021/09/22 05:01:47;;;;;;;14.57;12.03;;;11.40;99.90;;;;;;5127646;28;20197;-68
2021/09/22 05:04:13;;;;;;;19.43;12.27;;;11.60;99.90;;;;;;5128183;28;20155;-68
2021/09/22 05:06:38;;;;;;;17.37;12.47;;;11.60;99.90;;;;;;5128371;28;20167;-68
2021/09/22 05:09:04;;;;;;;16.77;14.00;;;11.70;99.90;;;;;;5127834;28;20228;-68
2021/09/22 05:11:30;;;;;;;16.53;12.33;;;11.80;99.90;;;;;;5127443;28;20217;-68
2021/09/22 05:13:56;;;;;;;18.40;13.10;;;11.70;99.90;;;;;;5128220;28;20173;-68
2021/09/22 05:16:21;;;;;;;17.90;13.53;;;11.70;99.90;;;;;;5128553;28;20159;-68
2021/09/22 05:18:47;;;;;;;24.50;13.43;;;11.80;99.90;;;;;;5127678;28;20300;-68
2021/09/22 05:21:12;;;;;;;14.23;12.73;;;11.70;99.90;;;;;;5127396;28;20265;-69
2021/09/22 05:23:38;;;;;;;19.10;11.70;;;11.60;99.90;;;;;;5128119;28;20219;-69
2021/09/22 05:26:04;;;;;;;14.33;11.80;;;11.40;99.90;;;;;;5127885;28;20186;-67
2021/09/22 05:28:29;;;;;;;13.57;12.13;;;11.40;99.90;;;;;;5127994;28;20524;-68
2021/09/22 05:30:55;;;;;;;13.93;12.20;;;11.50;99.90;;;;;;5127760;28;20166;-68
2021/09/22 05:33:21;;;;;;;18.03;11.67;;;11.40;99.90;;;;;;5127847;28;20159;-68
2021/09/22 05:35:47;;;;;;;22.13;12.83;;;11.50;99.90;;;;;;5127637;28;20178;-68
2021/09/22 05:38:13;;;;;;;18.80;11.53;;;11.50;99.90;;;;;;5128063;28;20167;-68
2021/09/22 05:40:38;;;;;;;14.43;11.80;;;11.50;99.90;;;;;;5127341;28;20185;-68
2021/09/22 05:43:04;;;;;;;14.13;11.80;;;11.40;99.90;;;;;;5108904;28;20162;-68
2021/09/22 05:45:30;;;;;;;12.77;11.30;;;11.30;99.90;;;;;;5127045;28;20222;-68
2021/09/22 05:47:55;;;;;;;13.97;11.33;;;11.20;99.90;;;;;;5127527;28;20167;-68
2021/09/22 05:50:21;;;;;;;19.87;12.93;;;11.20;99.90;;;;;;5126840;28;20186;-68
2021/09/22 05:52:47;;;;;;;20.60;13.57;;;11.40;99.90;;;;;;5127628;28;20560;-68
2021/09/22 05:55:12;;;;;;;26.27;14.93;;;11.50;99.90;;;;;;5109087;28;20175;-68
2021/09/22 05:57:38;;;;;;;18.30;14.63;;;11.50;99.90;;;;;;5127648;28;20166;-68
2021/09/22 06:00:05;;;;;;;18.57;14.43;;;11.40;99.90;;;;;;5126424;28;20198;-68
2021/09/22 06:02:30;;;;;;;20.60;13.50;;;11.30;99.90;;;;;;5109150;28;20165;-67
2021/09/22 06:04:56;;;;;;;17.57;13.70;;;11.30;99.90;;;;;;5126868;28;20170;-68
2021/09/22 06:07:21;;;;;;;16.50;12.77;;;11.50;99.90;;;;;;5127131;28;20151;-68
2021/09/22 06:09:47;;;;;;;18.67;13.50;;;11.60;99.90;;;;;;5126885;28;20206;-68
2021/09/22 06:12:13;;;;;;;24.83;13.63;;;11.70;99.90;;;;;;5127206;28;20151;-68
2021/09/22 06:14:38;;;;;;;23.40;13.80;;;11.80;99.90;;;;;;5108578;28;20159;-67
2021/09/22 06:17:04;;;;;;;19.07;13.67;;;11.90;99.90;;;;;;5126546;28;20163;-68
2021/09/22 06:19:29;;;;;;;16.60;12.93;;;11.80;99.90;;;;;;5126474;28;20222;-68
2021/09/22 06:21:55;;;;;;;17.03;13.20;;;11.70;99.90;;;;;;5126865;28;20178;-68
2021/09/22 06:24:21;;;;;;;21.07;13.60;;;11.70;99.90;;;;;;5126791;28;20184;-68
2021/09/22 06:26:47;;;;;;;21.70;15.27;;;11.90;99.90;;;;;;5127042;28;20332;-68
2021/09/22 06:29:13;;;;;;;25.60;15.50;;;12.00;99.90;;;;;;5126665;28;20174;-68
2021/09/22 06:31:40;;;;;;;19.90;14.53;;;12.00;99.90;;;;;;5126556;28;20212;-68
2021/09/22 06:34:06;;;;;;;19.23;15.17;;;12.00;99.90;;;;;;5126561;28;20169;-68
2021/09/22 06:36:32;;;;;;;19.90;14.83;;;12.10;99.90;;;;;;5126328;28;20175;-68
2021/09/22 06:38:57;;;;;;;18.60;14.13;;;12.10;99.90;;;;;;5126156;28;20262;-68
2021/09/22 06:41:29;;;;;;;21.03;14.37;;;12.20;99.90;;;;;;5125513;28;20197;-68
2021/09/22 06:43:58;;;;;;;25.42;14.38;;;12.30;99.90;;;;;;5126168;28;20159;-68
2021/09/22 06:46:24;;;;;;;20.40;14.33;;;12.40;99.90;;;;;;5126650;28;20165;-68
2021/09/22 06:48:50;;;;;;;19.33;14.05;;;12.50;99.90;;;;;;5126310;28;20147;-68
2021/09/22 06:51:18;;;;;;;20.10;14.20;;;12.50;99.90;;;;;;5126076;28;20199;-68
2021/09/22 06:53:44;;;;;;;20.17;13.73;;;12.50;99.90;;;;;;5126744;28;20154;-68
2021/09/22 06:56:10;;;;;;;20.75;14.88;;;12.50;99.90;;;;;;5126485;28;20159;-67
2021/09/22 06:58:35;;;;;;;21.63;15.35;;;12.70;99.90;;;;;;5126520;28;20166;-68
2021/09/22 07:01:01;;;;;;;22.50;14.93;;;12.80;99.90;;;;;;5125902;28;20178;-68
2021/09/22 07:03:27;;;;;;;25.02;16.05;;;13.00;99.90;;;;;;5108059;28;20201;-68
2021/09/22 07:05:53;;;;;;;24.52;15.73;;;13.10;99.90;;;;;;5126210;28;20170;-68
2021/09/22 07:08:19;;;;;;;25.23;15.95;;;13.10;99.90;;;;;;5126204;28;20179;-68
2021/09/22 07:10:45;;;;;;;24.38;15.65;;;13.20;99.90;;;;;;5127170;28;20334;-68
2021/09/22 07:13:11;;;;;;;27.10;16.60;;;13.30;99.90;;;;;;5130858;28;20190;-68
2021/09/22 07:15:37;;;;;;;22.55;15.85;;;13.30;99.90;;;;;;5130465;28;20170;-68
2021/09/22 07:18:03;;;;;;;23.05;15.60;;;13.40;99.90;;;;;;5130614;28;20170;-68
2021/09/22 07:20:29;;;;;;;23.25;15.98;;;13.50;99.90;;;;;;5129590;28;20269;-68
2021/09/22 07:22:55;;;;;;;24.88;15.90;;;13.50;99.90;;;;;;5130368;28;20235;-68
2021/09/22 07:25:21;;;;;;;24.80;15.52;;;13.60;99.90;;;;;;5130118;28;20162;-68
2021/09/22 07:27:47;;;;;;;22.23;15.52;;;13.70;99.90;;;;;;5130236;28;20182;-68
2021/09/22 07:30:16;;;;;;;23.05;15.85;;;13.80;99.90;;;;;;5129650;28;20686;-68
2021/09/22 07:32:44;;;;;;;21.77;15.73;;;14.00;99.90;;;;;;5111432;28;20633;-68
2021/09/22 07:35:11;;;;;;;20.77;16.40;;;14.10;99.90;;;;;;5129561;28;20170;-68
2021/09/22 07:37:37;;;;;;;23.67;16.27;;;14.30;99.90;;;;;;5130352;28;20277;-68
2021/09/22 07:40:04;;;;;;;21.88;16.27;;;14.40;99.90;;;;;;5129861;28;20186;-68
2021/09/22 07:42:30;;;;;;;24.83;16.27;;;14.60;99.90;;;;;;5111664;28;20200;-67
2021/09/22 07:44:55;;;;;;;29.77;17.77;;;14.70;99.90;;;;;;5129814;28;20179;-68
2021/09/22 07:47:22;;;;;;;29.63;17.88;;;15.00;99.90;;;;;;5130091;28;20505;-68
2021/09/22 07:49:48;;;;;;;23.77;18.00;;;15.40;99.90;;;;;;5129492;28;20190;-68
2021/09/22 07:52:14;;;;;;;24.60;16.23;;;15.70;99.90;;;;;;5129946;28;20169;-68
2021/09/22 07:54:41;;;;;;;23.67;16.98;;;15.70;99.90;;;;;;5129607;28;20159;-68
2021/09/22 07:57:07;;;;;;;31.10;18.92;;;15.70;99.90;;;;;;5129914;28;20193;-68
2021/09/22 07:59:33;;;;;;;39.35;17.98;;;16.10;99.90;;;;;;5129324;28;20541;-68
2021/09/22 08:01:59;;;;;;;31.80;17.88;;;16.10;99.90;;;;;;5129589;28;20232;-68
2021/09/22 08:04:25;;;;;;;37.45;18.15;;;16.10;99.90;;;;;;5110898;28;20151;-69
2021/09/22 08:06:51;;;;;;;27.95;16.95;;;16.30;99.90;;;;;;5129510;28;20166;-68
2021/09/22 08:09:17;;;;;;;33.30;17.48;;;16.30;99.90;;;;;;5110925;28;20184;-68
2021/09/22 08:11:44;;;;;;;33.28;18.05;;;16.40;99.90;;;;;;5110982;28;20218;-68
2021/09/22 08:14:10;;;;;;;34.08;17.60;;;16.60;99.90;;;;;;5129503;28;20158;-68
2021/09/22 08:16:35;;;;;;;27.63;16.67;;;16.70;99.90;;;;;;5129332;28;20637;-68
2021/09/22 08:19:01;;;;;;;32.40;17.20;;;16.80;99.90;;;;;;5128888;28;20226;-69
2021/09/22 08:21:27;;;;;;;35.72;17.48;;;16.90;99.90;;;;;;5128787;28;20253;-68
2021/09/22 08:23:53;;;;;;;35.90;18.60;;;16.90;99.90;;;;;;5129382;28;20163;-68
2021/09/22 08:26:18;;;;;;;29.38;18.08;;;17.10;99.90;;;;;;5129365;28;20215;-68
2021/09/22 08:28:44;;;;;;;26.60;17.75;;;17.40;99.90;;;;;;5129232;28;20178;-68
2021/09/22 08:31:10;;;;;;;27.42;17.90;;;17.30;99.90;;;;;;5128842;28;20209;-68
2021/09/22 08:33:35;;;;;;;23.95;16.95;;;17.30;99.90;;;;;;5128998;28;20194;-68
2021/09/22 08:36:01;;;;;;;28.05;18.75;;;17.30;99.90;;;;;;5128680;28;20175;-68
2021/09/22 08:38:27;;;;;;;37.38;18.67;;;17.50;99.90;;;;;;5128993;28;20174;-68
2021/09/22 08:40:53;;;;;;;31.05;15.45;;;17.60;99.90;;;;;;5128712;28;20191;-68
2021/09/22 08:43:26;;;;;;;50.50;17.48;;;17.90;99.90;;;;;;5129009;28;20158;-68
2021/09/22 08:45:51;;;;;;;36.78;15.77;;;18.00;99.90;;;;;;5128997;28;20163;-68
2021/09/22 08:48:17;;;;;;;25.35;15.50;;;17.80;99.90;;;;;;5128935;28;20187;-68
2021/09/22 08:50:44;;;;;;;22.42;15.52;;;17.80;99.90;;;;;;5109510;28;20175;-68
2021/09/22 08:53:09;;;;;;;40.17;16.92;;;17.80;99.90;;;;;;5128383;28;20170;-68
2021/09/22 08:55:35;;;;;;;39.65;16.02;;;17.80;99.90;;;;;;5109964;28;20167;-68
2021/09/22 08:58:01;;;;;;;31.65;15.30;;;17.70;99.90;;;;;;5128583;28;20642;-68
2021/09/22 09:00:27;;;;;;;35.10;16.40;;;17.80;99.90;;;;;;5128001;28;20195;-68
2021/09/22 09:02:53;;;;;;;25.98;14.77;;;17.80;99.90;;;;;;5128490;28;20208;-68
2021/09/22 09:05:20;;;;;;;18.75;14.23;;;18.00;99.90;;;;;;5109056;28;20170;-68
2021/09/22 09:07:54;;;;;;;20.60;14.60;;;18.10;99.90;;;;;;5128242;28;20185;-68
2021/09/22 09:10:23;;;;;;;23.75;14.55;;;18.30;99.90;;;;;;5127599;28;20218;-68
2021/09/22 09:13:02;;;;;;;16.48;13.65;;;18.30;99.90;;;;;;5128514;28;20165;-68
2021/09/22 09:15:36;;;;;;;19.92;13.93;;;18.40;99.90;;;;;;5128412;28;20163;-68
2021/09/22 09:18:13;;;;;;;20.65;12.00;;;18.50;99.90;;;;;;5109702;28;20538;-68
2021/09/22 09:20:39;;;;;;;34.55;13.30;;;18.60;99.90;;;;;;5127563;28;20603;-68
2021/09/22 09:23:09;;;;;;;31.63;13.70;;;18.50;99.90;;;;;;5128131;28;20593;-68
2021/09/22 09:26:00;;;;;;;27.80;13.50;;;18.60;99.90;;;;;;5127549;28;20158;-68
2021/09/22 09:28:29;;;;;;;23.35;12.25;;;18.80;99.90;;;;;;5128025;28;20158;-68
2021/09/22 09:31:03;;;;;;;25.05;12.85;;;19.00;99.90;;;;;;5127038;28;20174;-68
2021/09/22 09:33:59;;;;;;;20.63;11.00;;;19.30;99.90;;;;;;5126893;28;20172;-68
2021/09/22 09:36:31;;;;;;;22.73;10.18;;;19.40;99.90;;;;;;5114357;28;20195;-68
2021/09/22 09:39:01;;;;;;;11.68;9.52;;;19.50;99.90;;;;;;5127903;28;20230;-68
2021/09/22 09:41:39;;;;;;;19.20;10.52;;;19.50;99.90;;;;;;5127342;28;20178;-68
2021/09/22 09:44:08;;;;;;;10.95;9.52;;;19.40;99.90;;;;;;5127631;28;20165;-68
2021/09/22 09:46:34;;;;;;;13.27;9.40;;;19.20;99.90;;;;;;5127604;28;20162;-68
2021/09/22 09:49:07;;;;;;;16.60;9.32;;;19.20;99.90;;;;;;5127378;28;20166;-68
2021/09/22 09:51:56;;;;;;;12.90;8.90;;;19.40;99.90;;;;;;5127134;28;20178;-68
2021/09/22 09:54:26;;;;;;;12.25;8.90;;;19.60;99.90;;;;;;5127298;28;20162;-68
2021/09/22 09:56:55;;;;;;;11.38;8.18;;;19.70;99.90;;;;;;5127065;28;20175;-68
2021/09/22 09:59:22;;;;;;;10.90;8.15;;;19.90;99.90;;;;;;5126988;28;20165;-68
2021/09/22 10:01:54;;;;;;;11.43;8.85;;;20.20;99.90;;;;;;5127005;28;20187;-68
2021/09/22 10:04:25;;;;;;;12.32;8.45;;;20.20;99.90;;;;;;5108835;28;20162;-68
2021/09/22 10:06:52;;;;;;;12.65;8.68;;;20.10;99.90;;;;;;5126779;28;20167;-67
2021/09/22 10:09:18;;;;;;;12.25;9.07;;;20.10;99.90;;;;;;5127011;28;20167;-67
2021/09/22 10:11:45;;;;;;;12.55;8.50;;;20.10;99.90;;;;;;5108516;28;20210;-67
2021/09/22 10:14:14;;;;;;;17.02;8.68;;;19.80;99.90;;;;;;5127038;28;20169;-69
2021/09/22 10:16:40;;;;;;;16.30;9.35;;;19.90;99.90;;;;;;5126816;28;20166;-67
2021/09/22 10:19:07;;;;;;;18.50;10.10;;;19.80;99.90;;;;;;5108647;28;20740;-67
2021/09/22 10:21:34;;;;;;;16.73;8.90;;;19.70;99.90;;;;;;5126253;28;20201;-67
2021/09/22 10:24:02;;;;;;;19.75;9.57;;;19.80;99.90;;;;;;5126803;28;20178;-67
2021/09/22 10:26:31;;;;;;;13.95;9.63;;;19.70;99.90;;;;;;5127025;28;20498;-67
2021/09/22 10:29:00;;;;;;;15.88;9.80;;;19.90;99.90;;;;;;5126849;28;20155;-67
2021/09/22 10:31:28;;;;;;;18.33;11.57;;;20.00;99.90;;;;;;5126076;28;20163;-67
2021/09/22 10:33:57;;;;;;;18.45;11.07;;;19.80;99.90;;;;;;5126543;28;20202;-67
2021/09/22 10:36:40;;;;;;;23.08;10.85;;;19.70;99.90;;;;;;5126411;28;20665;-67
2021/09/22 10:39:22;;;;;;;24.83;12.55;;;19.90;99.90;;;;;;5126824;28;20168;-67
2021/09/22 10:41:48;;;;;;;16.92;11.95;;;20.00;99.90;;;;;;5126845;28;20213;-67
2021/09/22 10:44:37;;;;;;;22.45;10.95;;;19.90;99.90;;;;;;5126725;28;20163;-67
2021/09/22 10:47:30;;;;;;;18.73;11.18;;;20.10;99.90;;;;;;5126807;28;20158;-68
2021/09/22 10:49:56;;;;;;;18.63;11.15;;;20.50;99.90;;;;;;5125919;28;20181;-67
2021/09/22 10:52:28;;;;;;;63.08;15.10;;;20.30;99.90;;;;;;5126587;28;20143;-67
2021/09/22 10:55:14;;;;;;;21.92;10.90;;;20.80;99.90;;;;;;5107911;28;20182;-67
2021/09/22 10:57:42;;;;;;;16.95;10.43;;;21.10;99.90;;;;;;5108370;28;20158;-67
2021/09/22 11:00:10;;;;;;;35.92;10.57;;;20.90;99.90;;;;;;5107708;28;20200;-67
2021/09/22 11:02:48;;;;;;;19.00;10.15;;;20.90;99.90;;;;;;5126347;28;20170;-67
2021/09/22 11:05:32;;;;;;;17.83;9.60;;;21.10;99.90;;;;;;5125686;28;20197;-67
2021/09/22 11:08:03;;;;;;;13.98;9.52;;;21.00;99.90;;;;;;5126488;28;20151;-68
2021/09/22 11:10:53;;;;;;;13.13;9.73;;;20.90;99.90;;;;;;5125823;28;20323;-67
2021/09/22 11:13:19;;;;;;;14.85;9.30;;;20.70;99.90;;;;;;5098168;28;20205;-68
2021/09/22 11:15:53;;;;;;;15.00;10.23;;;20.80;99.90;;;;;;5126400;28;20643;-67
2021/09/22 11:18:20;;;;;;;12.88;10.40;;;20.70;99.90;;;;;;5125807;28;20194;-68
2021/09/22 11:20:56;;;;;;;19.73;10.05;;;20.90;99.90;;;;;;5125439;28;20214;-68
2021/09/22 11:23:23;;;;;;;14.02;9.52;;;21.50;99.90;;;;;;5126148;28;20266;-67
2021/09/22 11:25:49;;;;;;;21.98;10.05;;;21.80;99.90;;;;;;5126210;28;20154;-68
2021/09/22 11:28:15;;;;;;;15.13;9.32;;;22.00;99.90;;;;;;5126498;28;20250;-67
2021/09/22 11:30:43;;;;;;;16.30;8.70;;;22.00;99.90;;;;;;5125338;28;20175;-67
2021/09/22 11:33:19;;;;;;;17.10;9.63;;;22.00;99.90;;;;;;5125817;28;20159;-67
2021/09/22 11:35:45;;;;;;;11.52;8.73;;;21.80;99.90;;;;;;5125540;28;20166;-66
2021/09/22 11:38:11;;;;;;;10.00;8.55;;;21.70;99.90;;;;;;5126217;28;20249;-67
2021/09/22 11:40:37;;;;;;;18.00;10.23;;;22.00;99.90;;;;;;5125550;28;20206;-66
2021/09/22 11:43:10;;;;;;;15.82;9.48;;;22.50;99.90;;;;;;5126178;28;20443;-67
2021/09/22 11:45:43;;;;;;;19.90;9.45;;;22.10;99.90;;;;;;5125221;28;20163;-67
2021/09/22 11:48:10;;;;;;;12.63;8.98;;;22.10;99.90;;;;;;5107493;28;20163;-67
2021/09/22 11:50:38;;;;;;;16.98;9.13;;;22.00;99.90;;;;;;5124877;28;20186;-67
2021/09/22 11:53:12;;;;;;;11.38;9.20;;;22.00;99.90;;;;;;5125879;28;20167;-67
2021/09/22 11:55:39;;;;;;;11.75;8.88;;;22.10;99.90;;;;;;5125558;28;20170;-67
2021/09/22 11:58:10;;;;;;;17.88;9.52;;;22.10;99.90;;;;;;5144535;27;20263;-66
2021/09/22 12:00:37;;;;;;;15.60;9.93;;;22.50;99.90;;;;;;5128699;28;20269;-67
2021/09/22 12:03:16;;;;;;;12.38;9.95;;;22.70;99.90;;;;;;5129242;28;20166;-67
2021/09/22 12:05:43;;;;;;;14.25;10.45;;;22.90;99.90;;;;;;5128321;28;20174;-67
2021/09/22 12:08:10;;;;;;;11.18;9.70;;;23.00;99.90;;;;;;5129378;28;20555;-67
2021/09/22 12:10:43;;;;;;;14.40;10.93;;;23.20;99.90;;;;;;5128615;28;20210;-67
2021/09/22 12:13:08;;;;;;;12.85;8.98;;;23.30;99.90;;;;;;5129230;28;20161;-67
2021/09/22 12:15:35;;;;;;;16.20;9.85;;;23.30;99.90;;;;;;5129143;28;20163;-68
2021/09/22 12:18:02;;;;;;;16.35;9.98;;;22.90;99.90;;;;;;5110785;28;20175;-68
2021/09/22 12:20:30;;;;;;;13.88;9.73;;;22.70;99.90;;;;;;5109832;28;20728;-68
2021/09/22 12:23:07;;;;;;;15.30;10.20;;;22.60;99.90;;;;;;5128710;28;20184;-68
2021/09/22 12:25:34;;;;;;;14.63;10.52;;;22.40;99.90;;;;;;5128849;28;20248;-68
2021/09/22 12:28:02;;;;;;;22.35;10.27;;;22.40;99.90;;;;;;5129106;28;20637;-69
2021/09/22 12:30:33;;;;;;;13.13;9.40;;;22.90;99.90;;;;;;5128346;28;20158;-69
2021/09/22 12:33:07;;;;;;;14.13;10.57;;;23.10;99.90;;;;;;5128376;28;20174;-68